createdAt,value
2024-05-09T00:01:37.936Z,6.49
2024-05-09T00:04:08.222Z,7.25
2024-05-09T00:06:41.124Z,7.27
2024-05-09T00:09:11.637Z,6.49
2024-05-09T00:11:41.606Z,6.47
2024-05-09T00:14:11.511Z,6.42
2024-05-09T00:16:41.401Z,6.31
2024-05-09T00:19:11.570Z,6.32
2024-05-09T00:21:46.770Z,6.33
2024-05-09T00:24:16.626Z,6.20
2024-05-09T00:26:46.430Z,6.14
2024-05-09T00:29:16.234Z,6.09
2024-05-09T00:31:46.119Z,6.24
2024-05-09T00:34:16.162Z,6.07
2024-05-09T00:36:48.597Z,6.14
2024-05-09T00:39:18.456Z,6.02
2024-05-09T00:41:48.270Z,5.91
2024-05-09T00:44:18.544Z,6.05
2024-05-09T00:46:48.384Z,5.98
2024-05-09T00:49:18.410Z,6.04
2024-05-09T00:51:51.213Z,6.02
2024-05-09T00:54:21.874Z,5.96
2024-05-09T00:56:52.691Z,5.94
2024-05-09T00:59:23.303Z,6.04
2024-05-09T01:01:53.520Z,5.75
2024-05-09T01:04:23.624Z,5.68
2024-05-09T01:06:56.134Z,5.67
2024-05-09T01:09:26.048Z,5.54
2024-05-09T01:11:55.981Z,5.52
2024-05-09T01:14:25.966Z,5.59
2024-05-09T01:16:55.976Z,5.51
2024-05-09T01:19:30.766Z,5.48
2024-05-09T01:22:04.590Z,5.60
2024-05-09T01:24:36.958Z,5.48
2024-05-09T01:27:10.015Z,5.54
2024-05-09T01:29:39.861Z,5.40
2024-05-09T01:32:10.020Z,5.36
2024-05-09T01:34:39.891Z,5.33
2024-05-09T01:37:09.688Z,5.50
2024-05-09T01:39:42.133Z,5.37
2024-05-09T01:42:12.003Z,5.26
2024-05-09T01:44:43.499Z,5.20
2024-05-09T01:47:13.422Z,5.40
2024-05-09T01:49:43.928Z,5.60
2024-05-09T01:52:13.903Z,5.59
2024-05-09T01:54:46.423Z,5.42
2024-05-09T01:57:16.288Z,5.18
2024-05-09T01:59:46.215Z,5.29
2024-05-09T02:02:16.327Z,5.08
2024-05-09T02:04:50.145Z,5.11
2024-05-09T02:07:20.302Z,5.07
2024-05-09T02:09:55.419Z,5.04
2024-05-09T02:12:25.501Z,5.09
2024-05-09T02:14:55.375Z,4.97
2024-05-09T02:17:25.088Z,4.88
2024-05-09T02:19:55.477Z,4.95
2024-05-09T02:22:25.691Z,4.83
2024-05-09T02:24:58.451Z,4.72
2024-05-09T02:27:28.611Z,4.77
2024-05-09T02:29:58.803Z,4.75
2024-05-09T02:32:29.177Z,4.66
2024-05-09T02:34:59.756Z,4.60
2024-05-09T02:37:27.329Z,4.64
2024-05-09T02:40:00.266Z,4.78
2024-05-09T02:42:27.821Z,4.56
2024-05-09T02:44:57.611Z,4.47
2024-05-09T02:47:24.696Z,4.52
2024-05-09T02:49:55.017Z,4.42
2024-05-09T02:52:22.244Z,4.44
2024-05-09T02:54:52.028Z,4.36
2024-05-09T02:57:21.577Z,4.39
2024-05-09T02:59:51.399Z,4.40
2024-05-09T03:02:18.744Z,4.35
2024-05-09T03:04:48.771Z,4.29
2024-05-09T03:07:17.817Z,4.20
2024-05-09T03:09:49.930Z,4.14
2024-05-09T03:12:17.116Z,4.18
2024-05-09T03:14:52.657Z,4.20
2024-05-09T03:17:20.032Z,4.21
2024-05-09T03:19:49.900Z,4.14
2024-05-09T03:22:16.902Z,4.23
2024-05-09T03:24:46.690Z,4.22
2024-05-09T03:27:13.923Z,4.12
2024-05-09T03:29:45.043Z,4.10
2024-05-09T03:32:14.917Z,4.19
2024-05-09T03:34:44.900Z,4.17
2024-05-09T03:37:14.734Z,4.09
2024-05-09T03:39:44.519Z,4.12
2024-05-09T03:42:14.052Z,4.16
2024-05-09T03:44:43.835Z,4.22
2024-05-09T03:47:10.955Z,4.23
2024-05-09T03:49:43.388Z,4.23
2024-05-09T03:52:13.221Z,4.21
2024-05-09T03:54:45.128Z,4.25
2024-05-09T03:57:14.992Z,4.29
2024-05-09T03:59:42.302Z,4.44
2024-05-09T04:02:12.189Z,4.42
2024-05-09T04:04:45.106Z,4.12
2024-05-09T04:07:15.029Z,4.32
2024-05-09T04:09:42.154Z,4.23
2024-05-09T04:12:12.068Z,4.23
2024-05-09T04:14:39.575Z,4.37
2024-05-09T04:17:09.426Z,4.83
2024-05-09T04:19:36.726Z,5.47
2024-05-09T04:22:09.961Z,5.03
2024-05-09T04:24:37.201Z,5.03
2024-05-09T04:27:07.358Z,4.88
2024-05-09T04:29:37.481Z,4.87
2024-05-09T04:32:07.899Z,5.09
2024-05-09T04:34:35.985Z,5.11
2024-05-09T04:37:08.500Z,5.29
2024-05-09T04:39:35.727Z,5.27
2024-05-09T04:42:05.775Z,5.41
2024-05-09T04:44:33.278Z,5.52
2024-05-09T04:47:03.193Z,5.66
2024-05-09T04:49:30.584Z,5.71
2024-05-09T04:52:00.505Z,5.78
2024-05-09T04:54:36.035Z,5.91
2024-05-09T04:57:06.724Z,6.04
2024-05-09T04:59:34.054Z,6.16
2024-05-09T05:02:03.997Z,6.35
2024-05-09T05:04:31.543Z,6.69
2024-05-09T05:07:02.908Z,6.88
2024-05-09T05:09:33.107Z,7.13
2024-05-09T05:12:12.923Z,7.24
2024-05-09T05:14:40.326Z,7.23
2024-05-09T05:17:10.239Z,7.78
2024-05-09T05:19:37.548Z,7.60
2024-05-09T05:22:07.727Z,8.14
2024-05-09T05:24:37.573Z,7.80
2024-05-09T05:27:07.782Z,7.82
2024-05-09T05:29:35.206Z,7.89
2024-05-09T05:32:05.193Z,8.01
2024-05-09T05:34:32.795Z,8.16
2024-05-09T05:37:02.648Z,8.44
2024-05-09T05:39:29.919Z,8.73
2024-05-09T05:42:02.301Z,8.85
2024-05-09T05:44:29.653Z,9.13
2024-05-09T05:46:59.613Z,9.58
2024-05-09T05:49:27.275Z,9.95
2024-05-09T05:51:57.088Z,10.42
2024-05-09T05:54:24.302Z,10.61
2024-05-09T05:56:54.306Z,10.72
2024-05-09T05:59:29.318Z,10.72
2024-05-09T06:01:56.617Z,10.19
2024-05-09T06:04:26.526Z,9.95
2024-05-09T06:06:53.839Z,10.56
2024-05-09T06:09:23.603Z,11.61
2024-05-09T06:11:50.961Z,12.25
2024-05-09T06:14:20.843Z,12.43
2024-05-09T06:16:50.756Z,12.43
2024-05-09T06:19:21.919Z,12.51
2024-05-09T06:21:51.818Z,13.38
2024-05-09T06:24:19.133Z,13.42
2024-05-09T06:26:49.077Z,13.64
2024-05-09T06:29:16.397Z,14.13
2024-05-09T06:31:46.883Z,13.48
2024-05-09T06:34:18.963Z,14.68
2024-05-09T06:36:48.905Z,13.94
2024-05-09T06:39:16.189Z,12.22
2024-05-09T06:41:46.020Z,13.32
2024-05-09T06:44:13.304Z,13.37
2024-05-09T06:46:43.198Z,12.77
2024-05-09T06:49:12.200Z,11.97
2024-05-09T06:51:44.856Z,12.14
2024-05-09T06:54:12.165Z,14.29
2024-05-09T06:56:45.057Z,15.41
2024-05-09T06:59:12.579Z,15.75
2024-05-09T07:01:42.551Z,15.52
2024-05-09T07:04:09.936Z,14.68
2024-05-09T07:06:39.828Z,16.37
2024-05-09T07:09:09.764Z,15.87
2024-05-09T07:11:40.025Z,15.24
2024-05-09T07:14:07.447Z,15.52
2024-05-09T07:16:37.342Z,17.52
2024-05-09T07:19:04.767Z,18.51
2024-05-09T07:21:34.894Z,18.03
2024-05-09T07:24:02.155Z,17.62
2024-05-09T07:26:34.576Z,18.68
2024-05-09T07:29:01.874Z,16.43
2024-05-09T07:31:31.806Z,14.31
2024-05-09T07:34:00.661Z,17.55
2024-05-09T07:36:30.554Z,14.88
2024-05-09T07:38:57.767Z,16.56
2024-05-09T07:41:27.677Z,19.99
2024-05-09T07:43:57.638Z,16.00
2024-05-09T07:47:36.491Z,15.99
2024-05-09T07:50:55.837Z,15.02
2024-05-09T07:54:37.364Z,16.28
2024-05-09T07:57:05.340Z,14.73
2024-05-09T07:59:38.122Z,14.49
2024-05-09T08:02:05.882Z,17.65
2024-05-09T08:04:35.988Z,17.88
2024-05-09T08:07:03.280Z,18.53
2024-05-09T08:09:33.875Z,19.09
2024-05-09T08:12:01.916Z,17.91
2024-05-09T08:14:31.716Z,18.28
2024-05-09T08:17:01.539Z,19.29
2024-05-09T08:19:31.452Z,15.66
2024-05-09T08:21:58.753Z,19.34
2024-05-09T08:24:28.671Z,17.19
2024-05-09T08:26:55.974Z,20.71
2024-05-09T08:29:25.867Z,19.37
2024-05-09T08:31:56.553Z,17.06
2024-05-09T08:34:29.273Z,21.85
2024-05-09T08:36:59.697Z,17.30
2024-05-09T08:39:31.455Z,19.33
2024-05-09T08:41:58.744Z,16.84
2024-05-09T08:44:28.554Z,17.06
2024-05-09T08:46:56.588Z,22.29
2024-05-09T08:49:29.697Z,18.58
2024-05-09T08:51:56.988Z,19.43
2024-05-09T08:54:26.884Z,19.89
2024-05-09T08:56:54.299Z,22.20
2024-05-09T08:59:30.143Z,21.34
2024-05-09T09:01:58.288Z,17.77
2024-05-09T09:04:31.395Z,18.23
2024-05-09T09:07:00.374Z,16.77
2024-05-09T09:09:32.335Z,17.56
2024-05-09T09:11:59.593Z,21.37
2024-05-09T09:14:29.424Z,21.45
2024-05-09T09:16:56.633Z,23.26
2024-05-09T09:19:26.587Z,22.75
2024-05-09T09:21:56.491Z,23.98
2024-05-09T09:24:26.337Z,17.73
2024-05-09T09:26:53.548Z,22.53
2024-05-09T09:29:23.708Z,20.52
2024-05-09T09:31:58.733Z,18.39
2024-05-09T09:34:31.338Z,22.39
2024-05-09T09:37:04.738Z,21.97
2024-05-09T09:39:35.937Z,18.78
2024-05-09T09:42:04.363Z,23.30
2024-05-09T09:44:37.363Z,17.68
2024-05-09T09:47:07.021Z,22.25
2024-05-09T09:49:39.328Z,21.63
2024-05-09T09:52:11.266Z,20.30
2024-05-09T09:54:42.265Z,18.98
2024-05-09T09:57:09.562Z,23.45
2024-05-09T09:59:43.400Z,22.82
2024-05-09T10:02:10.921Z,23.55
2024-05-09T10:04:41.074Z,24.78
2024-05-09T10:07:12.671Z,22.75
2024-05-09T10:09:42.645Z,24.25
2024-05-09T10:12:10.733Z,25.35
2024-05-09T10:14:48.259Z,21.48
2024-05-09T10:17:15.745Z,25.00
2024-05-09T10:19:45.774Z,21.82
2024-05-09T10:22:27.697Z,26.21
2024-05-09T10:25:06.409Z,18.79
2024-05-09T10:27:34.058Z,23.43
2024-05-09T10:30:11.367Z,23.07
2024-05-09T10:32:42.023Z,25.05
2024-05-09T10:35:15.116Z,25.68
2024-05-09T10:37:46.386Z,21.21
2024-05-09T10:40:25.917Z,22.30
2024-05-09T10:42:57.426Z,25.62
2024-05-09T10:45:27.453Z,23.19
2024-05-09T10:47:55.371Z,25.72
2024-05-09T10:50:28.927Z,23.56
2024-05-09T10:53:03.074Z,20.89
2024-05-09T10:55:32.990Z,20.41
2024-05-09T10:58:00.341Z,19.80
2024-05-09T11:00:36.357Z,19.34
2024-05-09T11:03:04.419Z,19.34
2024-05-09T11:05:34.890Z,24.66
2024-05-09T11:08:05.660Z,25.23
2024-05-09T11:10:35.642Z,22.82
2024-05-09T11:13:02.970Z,20.69
2024-05-09T11:15:41.632Z,20.96
2024-05-09T11:18:24.232Z,24.26
2024-05-09T11:20:55.384Z,23.87
2024-05-09T11:23:27.302Z,21.98
2024-05-09T11:25:58.227Z,26.17
2024-05-09T11:28:28.587Z,26.37
2024-05-09T11:31:10.029Z,25.48
2024-05-09T11:33:38.218Z,22.74
2024-05-09T11:36:09.354Z,24.35
2024-05-09T11:38:39.308Z,23.08
2024-05-09T11:41:09.362Z,27.23
2024-05-09T11:43:36.562Z,22.92
2024-05-09T11:46:06.586Z,20.91
2024-05-09T11:48:33.997Z,27.13
2024-05-09T11:51:03.993Z,19.79
2024-05-09T11:53:31.193Z,22.09
2024-05-09T11:56:03.655Z,20.34
2024-05-09T11:58:34.350Z,21.40
2024-05-09T12:01:04.613Z,24.22
2024-05-09T12:03:32.294Z,23.24
2024-05-09T12:06:02.339Z,28.78
2024-05-09T12:08:29.986Z,21.13
2024-05-09T12:11:00.047Z,22.06
2024-05-09T12:13:30.119Z,23.72
2024-05-09T12:15:59.944Z,29.27
2024-05-09T12:18:27.239Z,20.70
2024-05-09T12:20:57.011Z,22.56
2024-05-09T12:23:24.252Z,22.97
2024-05-09T12:25:54.107Z,22.83
2024-05-09T12:28:21.957Z,24.59
2024-05-09T12:30:54.451Z,23.56
2024-05-09T12:33:21.941Z,26.75
2024-05-09T12:35:51.858Z,24.68
2024-05-09T12:38:19.040Z,24.41
2024-05-09T12:40:48.877Z,27.92
2024-05-09T12:43:16.251Z,30.44
2024-05-09T12:45:46.290Z,22.27
2024-05-09T12:48:16.440Z,28.14
2024-05-09T12:50:46.446Z,26.66
2024-05-09T12:53:13.833Z,24.69
2024-05-09T12:55:53.128Z,29.84
2024-05-09T12:58:26.979Z,28.62
2024-05-09T13:00:54.423Z,22.64
2024-05-09T13:03:26.936Z,24.60
2024-05-09T13:05:54.877Z,25.41
2024-05-09T13:08:25.110Z,20.61
2024-05-09T13:10:52.404Z,20.93
2024-05-09T13:13:22.259Z,30.13
2024-05-09T13:15:49.606Z,22.55
2024-05-09T13:18:19.633Z,24.07
2024-05-09T13:20:49.471Z,25.40
2024-05-09T13:23:19.296Z,29.31
2024-05-09T13:25:46.521Z,26.88
2024-05-09T13:28:16.661Z,23.77
2024-05-09T13:30:44.281Z,30.62
2024-05-09T13:33:14.984Z,29.77
2024-05-09T13:35:47.155Z,29.28
2024-05-09T13:38:22.808Z,22.32
2024-05-09T13:40:50.855Z,21.71
2024-05-09T13:43:22.042Z,27.48
2024-05-09T13:45:49.903Z,28.04
2024-05-09T13:48:20.117Z,29.86
2024-05-09T13:50:47.603Z,30.08
2024-05-09T13:53:17.618Z,25.51
2024-05-09T13:55:47.757Z,25.31
2024-05-09T13:58:17.857Z,26.74
2024-05-09T14:00:48.806Z,27.22
2024-05-09T14:03:20.908Z,24.41
2024-05-09T14:05:50.896Z,27.13
2024-05-09T14:08:22.735Z,23.77
2024-05-09T14:10:53.750Z,23.19
2024-05-09T14:13:23.723Z,23.80
2024-05-09T14:15:51.278Z,23.01
2024-05-09T14:18:21.520Z,27.85
2024-05-09T14:20:48.763Z,30.97
2024-05-09T14:23:20.827Z,24.53
2024-05-09T14:25:51.968Z,28.63
2024-05-09T14:28:26.981Z,30.40
2024-05-09T14:30:56.512Z,31.71
2024-05-09T14:33:27.431Z,25.87
2024-05-09T14:35:54.906Z,31.84
2024-05-09T14:38:24.827Z,31.09
2024-05-09T14:40:52.133Z,27.26
2024-05-09T14:43:24.844Z,28.93
2024-05-09T14:45:53.343Z,24.23
2024-05-09T14:48:23.275Z,23.00
2024-05-09T14:50:50.544Z,26.69
2024-05-09T14:53:20.368Z,25.70
2024-05-09T14:55:49.581Z,25.89
2024-05-09T14:58:19.737Z,21.99
2024-05-09T15:00:51.332Z,27.98
2024-05-09T15:03:22.638Z,22.64
2024-05-09T15:05:51.175Z,27.36
2024-05-09T15:08:21.925Z,23.63
2024-05-09T15:10:50.263Z,25.40
2024-05-09T15:13:20.990Z,23.61
2024-05-09T15:15:51.075Z,28.66
2024-05-09T15:18:21.145Z,28.88
2024-05-09T15:20:48.941Z,25.35
2024-05-09T15:23:19.009Z,25.33
2024-05-09T15:25:46.422Z,21.63
2024-05-09T15:28:16.619Z,22.52
2024-05-09T15:30:46.228Z,28.94
2024-05-09T15:33:20.048Z,25.32
2024-05-09T15:35:47.618Z,26.76
2024-05-09T15:38:18.714Z,22.47
2024-05-09T15:40:46.228Z,29.88
2024-05-09T15:43:16.394Z,25.07
2024-05-09T15:45:43.724Z,21.18
2024-05-09T15:48:14.409Z,28.58
2024-05-09T15:50:44.586Z,25.44
2024-05-09T15:53:15.243Z,24.11
2024-05-09T15:55:45.337Z,28.70
2024-05-09T15:58:13.506Z,24.18
2024-05-09T16:00:46.337Z,25.74
2024-05-09T16:03:15.663Z,22.25
2024-05-09T16:05:49.191Z,27.13
2024-05-09T16:08:16.882Z,29.66
2024-05-09T16:10:48.107Z,23.12
2024-05-09T16:13:16.506Z,28.21
2024-05-09T16:15:47.097Z,28.08
2024-05-09T16:18:14.529Z,26.28
2024-05-09T16:20:46.415Z,30.18
2024-05-09T16:23:18.238Z,27.80
2024-05-09T16:25:48.528Z,22.34
2024-05-09T16:28:18.953Z,24.65
2024-05-09T16:30:46.474Z,23.73
2024-05-09T16:33:19.462Z,26.47
2024-05-09T16:35:47.323Z,28.11
2024-05-09T16:38:17.119Z,27.20
2024-05-09T16:40:48.031Z,25.99
2024-05-09T16:43:18.060Z,25.14
2024-05-09T16:45:45.357Z,22.06
2024-05-09T16:48:16.496Z,25.09
2024-05-09T16:50:44.140Z,21.04
2024-05-09T16:53:17.332Z,21.12
2024-05-09T16:55:47.131Z,24.02
2024-05-09T16:58:17.227Z,25.53
2024-05-09T17:00:44.916Z,24.28
2024-05-09T17:03:17.020Z,23.06
2024-05-09T17:05:46.055Z,20.93
2024-05-09T17:08:21.277Z,27.74
2024-05-09T17:10:51.310Z,23.34
2024-05-09T17:13:22.635Z,24.05
2024-05-09T17:15:52.951Z,24.17
2024-05-09T17:18:20.462Z,25.68
2024-05-09T17:20:52.424Z,21.53
2024-05-09T17:23:19.673Z,22.74
2024-05-09T17:25:49.518Z,24.87
2024-05-09T17:28:19.526Z,21.17
2024-05-09T17:30:49.663Z,20.97
2024-05-09T17:33:17.091Z,20.94
2024-05-09T17:35:50.388Z,24.29
2024-05-09T17:38:18.061Z,20.65
2024-05-09T17:40:47.984Z,20.95
2024-05-09T17:43:15.410Z,23.91
2024-05-09T17:45:48.082Z,22.51
2024-05-09T17:48:15.685Z,21.46
2024-05-09T17:50:45.722Z,22.86
2024-05-09T17:53:12.975Z,23.74
2024-05-09T17:55:43.195Z,25.13
2024-05-09T17:58:12.406Z,25.18
2024-05-09T18:00:42.984Z,23.98
2024-05-09T18:03:13.956Z,24.72
2024-05-09T18:05:45.252Z,24.33
2024-05-09T18:08:13.545Z,24.42
2024-05-09T18:10:44.354Z,23.27
2024-05-09T18:13:12.724Z,22.84
2024-05-09T18:15:42.833Z,21.93
2024-05-09T18:18:13.393Z,20.33
2024-05-09T18:20:45.717Z,22.43
2024-05-09T18:23:16.368Z,22.42
2024-05-09T18:25:48.264Z,21.81
2024-05-09T18:28:16.963Z,21.32
2024-05-09T18:30:47.122Z,21.82
2024-05-09T18:33:17.294Z,20.06
2024-05-09T18:35:48.792Z,20.97
2024-05-09T18:38:16.168Z,22.24
2024-05-09T18:40:48.880Z,18.75
2024-05-09T18:43:17.310Z,19.35
2024-05-09T18:45:47.747Z,21.93
2024-05-09T18:48:17.993Z,22.31
2024-05-09T18:50:48.126Z,21.90
2024-05-09T18:53:16.162Z,21.25
2024-05-09T18:55:46.084Z,20.70
2024-05-09T18:58:13.495Z,19.55
2024-05-09T19:00:46.005Z,17.13
2024-05-09T19:03:18.587Z,16.06
2024-05-09T19:05:48.827Z,15.87
2024-05-09T19:08:16.362Z,16.62
2024-05-09T19:10:46.916Z,16.05
2024-05-09T19:13:14.982Z,15.64
2024-05-09T19:15:45.407Z,15.44
2024-05-09T19:18:13.925Z,15.32
2024-05-09T19:20:47.286Z,15.18
2024-05-09T19:23:14.562Z,15.10
2024-05-09T19:25:44.412Z,15.33
2024-05-09T19:28:11.790Z,14.91
2024-05-09T19:30:42.917Z,14.82
2024-05-09T19:33:12.752Z,14.87
2024-05-09T19:35:46.463Z,14.90
2024-05-09T19:38:13.933Z,14.70
2024-05-09T19:40:43.762Z,14.78
2024-05-09T19:43:11.226Z,14.72
2024-05-09T19:45:43.784Z,14.60
2024-05-09T19:48:11.550Z,14.50
2024-05-09T19:50:44.287Z,14.20
2024-05-09T19:53:15.321Z,14.05
2024-05-09T19:55:45.651Z,14.13
2024-05-09T19:58:13.357Z,15.74
2024-05-09T20:00:44.465Z,18.11
2024-05-09T20:03:13.352Z,17.48
2024-05-09T20:05:45.516Z,17.30
2024-05-09T20:08:16.764Z,14.94
2024-05-09T20:10:46.847Z,13.80
2024-05-09T20:13:14.843Z,13.59
2024-05-09T20:15:44.782Z,14.53
2024-05-09T20:18:12.866Z,14.21
2024-05-09T20:20:44.682Z,13.27
2024-05-09T20:23:15.838Z,12.92
2024-05-09T20:25:45.997Z,12.73
2024-05-09T20:28:13.286Z,12.68
2024-05-09T20:30:43.254Z,12.68
2024-05-09T20:33:11.937Z,12.62
2024-05-09T20:35:41.761Z,12.66
2024-05-09T20:38:08.991Z,12.65
2024-05-09T20:40:41.574Z,15.74
2024-05-09T20:43:10.328Z,14.87
2024-05-09T20:45:41.141Z,12.57
2024-05-09T20:48:09.884Z,12.47
2024-05-09T20:50:42.108Z,12.55
2024-05-09T20:53:12.165Z,12.61
2024-05-09T20:55:45.869Z,12.84
2024-05-09T20:58:13.627Z,13.01
2024-05-09T21:00:45.639Z,12.55
2024-05-09T21:03:15.820Z,12.42
2024-05-09T21:05:47.414Z,12.62
2024-05-09T21:08:15.404Z,12.29
2024-05-09T21:10:48.116Z,12.34
2024-05-09T21:13:15.512Z,13.91
2024-05-09T21:15:45.554Z,12.53
2024-05-09T21:18:12.972Z,12.55
2024-05-09T21:20:42.823Z,13.87
2024-05-09T21:23:10.092Z,13.16
2024-05-09T21:25:39.934Z,14.02
2024-05-09T21:28:09.803Z,12.12
2024-05-09T21:30:42.631Z,11.82
2024-05-09T21:33:12.976Z,11.66
2024-05-09T21:35:44.855Z,11.67
2024-05-09T21:38:14.120Z,11.48
2024-05-09T21:40:44.965Z,11.35
2024-05-09T21:43:15.411Z,11.41
2024-05-09T21:45:45.625Z,11.37
2024-05-09T21:48:13.738Z,11.51
2024-05-09T21:50:43.812Z,11.51
2024-05-09T21:53:11.729Z,11.42
2024-05-09T21:55:41.946Z,11.22
2024-05-09T21:58:10.521Z,11.95
2024-05-09T22:00:45.582Z,11.50
2024-05-09T22:03:13.173Z,11.38
2024-05-09T22:05:45.028Z,10.97
2024-05-09T22:08:12.778Z,10.99
2024-05-09T22:10:42.692Z,11.24
2024-05-09T22:13:10.284Z,13.38
2024-05-09T22:15:42.999Z,12.00
2024-05-09T22:18:11.338Z,12.01
2024-05-09T22:20:45.357Z,11.98
2024-05-09T22:23:14.998Z,10.96
2024-05-09T22:25:45.731Z,12.16
2024-05-09T22:28:15.821Z,11.38
2024-05-09T22:30:50.747Z,11.54
2024-05-09T22:33:18.776Z,11.23
2024-05-09T22:35:51.395Z,10.96
2024-05-09T22:38:19.339Z,11.06
2024-05-09T22:40:50.218Z,10.92
2024-05-09T22:43:21.066Z,10.89
2024-05-09T22:45:56.773Z,10.77
2024-05-09T22:48:25.459Z,10.67
2024-05-09T22:50:56.811Z,10.93
2024-05-09T22:53:28.632Z,10.66
2024-05-09T22:55:58.837Z,10.37
2024-05-09T22:58:26.199Z,10.53
2024-05-09T23:00:58.758Z,10.45
2024-05-09T23:03:26.346Z,10.41
2024-05-09T23:05:56.416Z,10.39
2024-05-09T23:08:23.715Z,11.77
2024-05-09T23:10:53.806Z,10.92
2024-05-09T23:13:21.285Z,10.51
2024-05-09T23:15:51.331Z,11.25
2024-05-09T23:18:21.325Z,10.70
2024-05-09T23:20:51.863Z,11.94
2024-05-09T23:23:19.145Z,11.25
2024-05-09T23:25:48.972Z,10.81
2024-05-09T23:28:16.282Z,11.02
2024-05-09T23:30:46.156Z,10.79
2024-05-09T23:33:14.315Z,10.77
2024-05-09T23:35:47.176Z,10.91
2024-05-09T23:38:14.542Z,10.69
2024-05-09T23:40:44.407Z,10.59
2024-05-09T23:43:12.851Z,10.61
2024-05-09T23:45:43.636Z,10.71
2024-05-09T23:48:11.460Z,10.45
2024-05-09T23:50:41.839Z,10.30
2024-05-09T23:53:14.239Z,10.37
2024-05-09T23:55:44.141Z,10.46
2024-05-09T23:58:11.872Z,10.45
